sensor_id;sensor_type;location;lat;lon;timestamp;P1;durP1;ratioP1;P2;durP2;ratioP2
19225;SDS011;9747;48.536;12.522;2023-12-20T00:00:35;5.35;;;4.95;;
19225;SDS011;9747;48.536;12.522;2023-12-20T00:03:05;5.63;;;5.05;;
19225;SDS011;9747;48.536;12.522;2023-12-20T00:05:32;5.20;;;4.70;;
19225;SDS011;9747;48.536;12.522;2023-12-20T00:08:01;5.90;;;5.05;;
19225;SDS011;9747;48.536;12.522;2023-12-20T00:10:30;5.95;;;4.78;;
19225;SDS011;9747;48.536;12.522;2023-12-20T00:12:57;5.20;;;4.70;;
19225;SDS011;9747;48.536;12.522;2023-12-20T00:15:25;6.10;;;5.20;;
19225;SDS011;9747;48.536;12.522;2023-12-20T00:17:52;5.55;;;5.05;;
19225;SDS011;9747;48.536;12.522;2023-12-20T00:20:21;5.43;;;4.93;;
19225;SDS011;9747;48.536;12.522;2023-12-20T00:22:48;5.72;;;5.07;;
19225;SDS011;9747;48.536;12.522;2023-12-20T00:25:16;5.50;;;5.00;;
19225;SDS011;9747;48.536;12.522;2023-12-20T00:27:43;5.25;;;4.63;;
19225;SDS011;9747;48.536;12.522;2023-12-20T00:30:11;5.88;;;5.05;;
19225;SDS011;9747;48.536;12.522;2023-12-20T00:32:39;5.25;;;4.75;;
19225;SDS011;9747;48.536;12.522;2023-12-20T00:35:11;5.60;;;5.10;;
19225;SDS011;9747;48.536;12.522;2023-12-20T00:37:40;5.80;;;5.22;;
19225;SDS011;9747;48.536;12.522;2023-12-20T00:40:08;4.80;;;4.30;;
19225;SDS011;9747;48.536;12.522;2023-12-20T00:42:37;5.00;;;4.50;;
19225;SDS011;9747;48.536;12.522;2023-12-20T00:45:04;5.25;;;4.75;;
19225;SDS011;9747;48.536;12.522;2023-12-20T00:47:33;5.38;;;4.50;;
19225;SDS011;9747;48.536;12.522;2023-12-20T00:50:00;4.85;;;4.40;;
19225;SDS011;9747;48.536;12.522;2023-12-20T00:52:28;4.70;;;4.30;;
19225;SDS011;9747;48.536;12.522;2023-12-20T00:54:57;4.63;;;4.22;;
19225;SDS011;9747;48.536;12.522;2023-12-20T00:57:25;4.53;;;4.13;;
19225;SDS011;9747;48.536;12.522;2023-12-20T00:59:52;5.43;;;4.32;;
19225;SDS011;9747;48.536;12.522;2023-12-20T01:02:19;4.50;;;4.10;;
19225;SDS011;9747;48.536;12.522;2023-12-20T01:04:47;4.78;;;4.38;;
19225;SDS011;9747;48.536;12.522;2023-12-20T01:07:14;4.57;;;4.18;;
19225;SDS011;9747;48.536;12.522;2023-12-20T01:09:42;4.60;;;4.03;;
19225;SDS011;9747;48.536;12.522;2023-12-20T01:12:11;4.60;;;4.20;;
19225;SDS011;9747;48.536;12.522;2023-12-20T01:14:38;4.45;;;4.00;;
19225;SDS011;9747;48.536;12.522;2023-12-20T01:17:05;4.05;;;3.75;;
19225;SDS011;9747;48.536;12.522;2023-12-20T01:19:33;4.80;;;4.40;;
19225;SDS011;9747;48.536;12.522;2023-12-20T01:22:00;3.88;;;3.47;;
19225;SDS011;9747;48.536;12.522;2023-12-20T01:24:28;3.75;;;3.45;;
19225;SDS011;9747;48.536;12.522;2023-12-20T01:26:56;4.25;;;3.85;;
19225;SDS011;9747;48.536;12.522;2023-12-20T01:29:24;4.13;;;3.70;;
19225;SDS011;9747;48.536;12.522;2023-12-20T01:31:52;4.00;;;3.60;;
19225;SDS011;9747;48.536;12.522;2023-12-20T01:34:19;3.72;;;3.42;;
19225;SDS011;9747;48.536;12.522;2023-12-20T01:36:47;3.70;;;3.40;;
19225;SDS011;9747;48.536;12.522;2023-12-20T01:39:14;3.70;;;3.40;;
19225;SDS011;9747;48.536;12.522;2023-12-20T01:41:42;3.63;;;3.35;;
19225;SDS011;9747;48.536;12.522;2023-12-20T01:44:10;3.70;;;3.40;;
19225;SDS011;9747;48.536;12.522;2023-12-20T01:46:39;3.53;;;3.22;;
19225;SDS011;9747;48.536;12.522;2023-12-20T01:49:07;3.60;;;3.30;;
19225;SDS011;9747;48.536;12.522;2023-12-20T01:51:34;3.83;;;3.42;;
19225;SDS011;9747;48.536;12.522;2023-12-20T01:54:02;3.50;;;3.20;;
19225;SDS011;9747;48.536;12.522;2023-12-20T01:56:30;3.60;;;3.30;;
19225;SDS011;9747;48.536;12.522;2023-12-20T01:58:58;3.55;;;3.25;;
19225;SDS011;9747;48.536;12.522;2023-12-20T02:01:26;3.30;;;3.00;;
19225;SDS011;9747;48.536;12.522;2023-12-20T02:03:55;3.67;;;3.38;;
19225;SDS011;9747;48.536;12.522;2023-12-20T02:06:22;3.22;;;2.88;;
19225;SDS011;9747;48.536;12.522;2023-12-20T02:08:50;3.55;;;3.25;;
19225;SDS011;9747;48.536;12.522;2023-12-20T02:11:17;3.10;;;2.90;;
19225;SDS011;9747;48.536;12.522;2023-12-20T02:13:44;2.90;;;2.70;;
19225;SDS011;9747;48.536;12.522;2023-12-20T02:16:11;3.67;;;3.22;;
19225;SDS011;9747;48.536;12.522;2023-12-20T02:18:39;3.20;;;2.90;;
19225;SDS011;9747;48.536;12.522;2023-12-20T02:21:08;3.22;;;2.92;;
19225;SDS011;9747;48.536;12.522;2023-12-20T02:23:37;2.97;;;2.78;;
19225;SDS011;9747;48.536;12.522;2023-12-20T02:26:05;3.13;;;2.90;;
19225;SDS011;9747;48.536;12.522;2023-12-20T02:28:33;2.78;;;2.58;;
19225;SDS011;9747;48.536;12.522;2023-12-20T02:31:01;2.95;;;2.47;;
19225;SDS011;9747;48.536;12.522;2023-12-20T02:33:29;2.83;;;2.63;;
19225;SDS011;9747;48.536;12.522;2023-12-20T02:35:56;2.45;;;2.28;;
19225;SDS011;9747;48.536;12.522;2023-12-20T02:38:23;2.90;;;2.70;;
19225;SDS011;9747;48.536;12.522;2023-12-20T02:40:52;2.75;;;2.55;;
19225;SDS011;9747;48.536;12.522;2023-12-20T02:43:19;2.53;;;2.40;;
19225;SDS011;9747;48.536;12.522;2023-12-20T02:45:47;2.78;;;2.58;;
19225;SDS011;9747;48.536;12.522;2023-12-20T02:48:14;2.42;;;2.33;;
19225;SDS011;9747;48.536;12.522;2023-12-20T02:50:42;2.45;;;2.30;;
19225;SDS011;9747;48.536;12.522;2023-12-20T02:53:09;2.90;;;2.58;;
19225;SDS011;9747;48.536;12.522;2023-12-20T02:55:37;2.50;;;2.40;;
19225;SDS011;9747;48.536;12.522;2023-12-20T02:58:06;2.60;;;2.40;;
19225;SDS011;9747;48.536;12.522;2023-12-20T03:00:33;2.60;;;2.40;;
19225;SDS011;9747;48.536;12.522;2023-12-20T03:03:01;2.70;;;2.50;;
19225;SDS011;9747;48.536;12.522;2023-12-20T03:05:28;2.55;;;2.35;;
19225;SDS011;9747;48.536;12.522;2023-12-20T03:07:56;2.60;;;2.40;;
19225;SDS011;9747;48.536;12.522;2023-12-20T03:10:23;2.33;;;2.22;;
19225;SDS011;9747;48.536;12.522;2023-12-20T03:12:51;2.30;;;2.20;;
19225;SDS011;9747;48.536;12.522;2023-12-20T03:15:19;2.20;;;2.10;;
19225;SDS011;9747;48.536;12.522;2023-12-20T03:17:47;2.38;;;2.17;;
19225;SDS011;9747;48.536;12.522;2023-12-20T03:20:14;2.40;;;2.20;;
19225;SDS011;9747;48.536;12.522;2023-12-20T03:22:42;2.30;;;2.20;;
19225;SDS011;9747;48.536;12.522;2023-12-20T03:25:09;2.30;;;2.20;;
19225;SDS011;9747;48.536;12.522;2023-12-20T03:27:37;2.42;;;2.22;;
19225;SDS011;9747;48.536;12.522;2023-12-20T03:30:05;2.40;;;2.20;;
19225;SDS011;9747;48.536;12.522;2023-12-20T03:32:36;2.30;;;2.20;;
19225;SDS011;9747;48.536;12.522;2023-12-20T03:35:04;2.40;;;2.20;;
19225;SDS011;9747;48.536;12.522;2023-12-20T03:37:32;2.50;;;2.30;;
19225;SDS011;9747;48.536;12.522;2023-12-20T03:40:00;2.38;;;2.20;;
19225;SDS011;9747;48.536;12.522;2023-12-20T03:42:27;2.08;;;1.90;;
19225;SDS011;9747;48.536;12.522;2023-12-20T03:44:55;2.20;;;2.10;;
19225;SDS011;9747;48.536;12.522;2023-12-20T03:47:22;2.15;;;2.05;;
19225;SDS011;9747;48.536;12.522;2023-12-20T03:49:51;1.95;;;1.85;;
19225;SDS011;9747;48.536;12.522;2023-12-20T03:52:19;2.03;;;1.92;;
19225;SDS011;9747;48.536;12.522;2023-12-20T03:54:47;2.17;;;2.08;;
19225;SDS011;9747;48.536;12.522;2023-12-20T03:57:14;2.05;;;1.95;;
19225;SDS011;9747;48.536;12.522;2023-12-20T03:59:42;1.95;;;1.85;;
19225;SDS011;9747;48.536;12.522;2023-12-20T04:02:09;2.00;;;1.90;;
19225;SDS011;9747;48.536;12.522;2023-12-20T04:04:36;2.00;;;1.90;;
19225;SDS011;9747;48.536;12.522;2023-12-20T04:07:05;2.10;;;2.00;;
19225;SDS011;9747;48.536;12.522;2023-12-20T04:09:33;2.20;;;2.10;;
19225;SDS011;9747;48.536;12.522;2023-12-20T04:12:00;1.90;;;1.80;;
19225;SDS011;9747;48.536;12.522;2023-12-20T04:14:27;1.95;;;1.85;;
19225;SDS011;9747;48.536;12.522;2023-12-20T04:16:55;2.05;;;1.95;;
19225;SDS011;9747;48.536;12.522;2023-12-20T04:19:22;2.28;;;2.08;;
19225;SDS011;9747;48.536;12.522;2023-12-20T04:21:50;1.90;;;1.80;;
19225;SDS011;9747;48.536;12.522;2023-12-20T04:24:18;2.05;;;1.95;;
19225;SDS011;9747;48.536;12.522;2023-12-20T04:26:46;1.95;;;1.85;;
19225;SDS011;9747;48.536;12.522;2023-12-20T04:29:13;1.63;;;1.63;;
19225;SDS011;9747;48.536;12.522;2023-12-20T04:31:41;2.03;;;1.92;;
19225;SDS011;9747;48.536;12.522;2023-12-20T04:34:08;2.03;;;1.92;;
19225;SDS011;9747;48.536;12.522;2023-12-20T04:36:36;2.00;;;1.90;;
19225;SDS011;9747;48.536;12.522;2023-12-20T04:39:03;1.90;;;1.80;;
19225;SDS011;9747;48.536;12.522;2023-12-20T04:41:33;2.10;;;2.00;;
19225;SDS011;9747;48.536;12.522;2023-12-20T04:44:00;2.25;;;2.05;;
19225;SDS011;9747;48.536;12.522;2023-12-20T04:46:27;1.67;;;1.58;;
19225;SDS011;9747;48.536;12.522;2023-12-20T04:48:55;1.60;;;1.60;;
19225;SDS011;9747;48.536;12.522;2023-12-20T04:51:22;1.80;;;1.70;;
19225;SDS011;9747;48.536;12.522;2023-12-20T04:53:50;1.95;;;1.85;;
19225;SDS011;9747;48.536;12.522;2023-12-20T04:56:17;1.75;;;1.65;;
19225;SDS011;9747;48.536;12.522;2023-12-20T04:58:46;1.73;;;1.63;;
19225;SDS011;9747;48.536;12.522;2023-12-20T05:01:13;1.70;;;1.60;;
19225;SDS011;9747;48.536;12.522;2023-12-20T05:03:42;1.95;;;1.80;;
19225;SDS011;9747;48.536;12.522;2023-12-20T05:06:09;1.80;;;1.70;;
19225;SDS011;9747;48.536;12.522;2023-12-20T05:08:37;1.52;;;1.50;;
19225;SDS011;9747;48.536;12.522;2023-12-20T05:11:04;1.70;;;1.60;;
19225;SDS011;9747;48.536;12.522;2023-12-20T05:13:32;1.70;;;1.60;;
19225;SDS011;9747;48.536;12.522;2023-12-20T05:16:01;1.98;;;1.80;;
19225;SDS011;9747;48.536;12.522;2023-12-20T05:18:29;1.80;;;1.70;;
19225;SDS011;9747;48.536;12.522;2023-12-20T05:20:56;1.98;;;1.77;;
19225;SDS011;9747;48.536;12.522;2023-12-20T05:23:24;1.70;;;1.60;;
19225;SDS011;9747;48.536;12.522;2023-12-20T05:25:51;1.50;;;1.40;;
19225;SDS011;9747;48.536;12.522;2023-12-20T05:28:18;1.40;;;1.40;;
19225;SDS011;9747;48.536;12.522;2023-12-20T05:30:46;2.05;;;1.77;;
19225;SDS011;9747;48.536;12.522;2023-12-20T05:33:15;1.80;;;1.70;;
19225;SDS011;9747;48.536;12.522;2023-12-20T05:35:42;1.40;;;1.40;;
19225;SDS011;9747;48.536;12.522;2023-12-20T05:38:10;1.65;;;1.55;;
19225;SDS011;9747;48.536;12.522;2023-12-20T05:40:37;1.30;;;1.30;;
19225;SDS011;9747;48.536;12.522;2023-12-20T05:43:06;1.50;;;1.50;;
19225;SDS011;9747;48.536;12.522;2023-12-20T05:45:33;1.50;;;1.40;;
19225;SDS011;9747;48.536;12.522;2023-12-20T05:48:02;1.70;;;1.60;;
19225;SDS011;9747;48.536;12.522;2023-12-20T05:50:31;1.30;;;1.30;;
19225;SDS011;9747;48.536;12.522;2023-12-20T05:53:00;1.38;;;1.38;;
19225;SDS011;9747;48.536;12.522;2023-12-20T05:55:27;1.40;;;1.33;;
19225;SDS011;9747;48.536;12.522;2023-12-20T05:57:54;1.50;;;1.40;;
19225;SDS011;9747;48.536;12.522;2023-12-20T06:00:22;1.50;;;1.40;;
19225;SDS011;9747;48.536;12.522;2023-12-20T06:02:50;1.55;;;1.45;;
19225;SDS011;9747;48.536;12.522;2023-12-20T06:05:17;1.52;;;1.48;;
19225;SDS011;9747;48.536;12.522;2023-12-20T06:07:46;1.73;;;1.60;;
19225;SDS011;9747;48.536;12.522;2023-12-20T06:10:15;1.23;;;1.13;;
19225;SDS011;9747;48.536;12.522;2023-12-20T06:12:43;1.60;;;1.50;;
19225;SDS011;9747;48.536;12.522;2023-12-20T06:15:12;1.20;;;1.20;;
19225;SDS011;9747;48.536;12.522;2023-12-20T06:17:40;1.13;;;1.13;;
19225;SDS011;9747;48.536;12.522;2023-12-20T06:20:07;1.30;;;1.30;;
19225;SDS011;9747;48.536;12.522;2023-12-20T06:22:36;1.25;;;1.25;;
19225;SDS011;9747;48.536;12.522;2023-12-20T06:25:05;1.17;;;1.17;;
19225;SDS011;9747;48.536;12.522;2023-12-20T06:27:34;1.20;;;1.20;;
19225;SDS011;9747;48.536;12.522;2023-12-20T06:30:01;1.65;;;1.55;;
19225;SDS011;9747;48.536;12.522;2023-12-20T06:32:29;1.30;;;1.30;;
19225;SDS011;9747;48.536;12.522;2023-12-20T06:34:57;1.20;;;1.20;;
19225;SDS011;9747;48.536;12.522;2023-12-20T06:37:24;1.02;;;1.02;;
19225;SDS011;9747;48.536;12.522;2023-12-20T06:39:52;1.25;;;1.25;;
19225;SDS011;9747;48.536;12.522;2023-12-20T06:42:20;1.20;;;1.20;;
19225;SDS011;9747;48.536;12.522;2023-12-20T06:44:48;1.10;;;1.10;;
19225;SDS011;9747;48.536;12.522;2023-12-20T06:47:15;1.17;;;1.17;;
19225;SDS011;9747;48.536;12.522;2023-12-20T06:49:43;1.10;;;1.10;;
19225;SDS011;9747;48.536;12.522;2023-12-20T06:52:10;1.20;;;1.20;;
19225;SDS011;9747;48.536;12.522;2023-12-20T06:54:38;1.30;;;1.30;;
19225;SDS011;9747;48.536;12.522;2023-12-20T06:57:05;1.20;;;1.20;;
19225;SDS011;9747;48.536;12.522;2023-12-20T06:59:39;1.20;;;1.15;;
19225;SDS011;9747;48.536;12.522;2023-12-20T07:02:07;1.02;;;1.02;;
19225;SDS011;9747;48.536;12.522;2023-12-20T07:04:38;1.10;;;1.10;;
19225;SDS011;9747;48.536;12.522;2023-12-20T07:07:06;0.98;;;0.98;;
19225;SDS011;9747;48.536;12.522;2023-12-20T07:09:34;1.50;;;1.20;;
19225;SDS011;9747;48.536;12.522;2023-12-20T07:12:01;0.90;;;0.90;;
19225;SDS011;9747;48.536;12.522;2023-12-20T07:14:30;1.42;;;1.30;;
19225;SDS011;9747;48.536;12.522;2023-12-20T07:16:58;1.00;;;1.00;;
19225;SDS011;9747;48.536;12.522;2023-12-20T07:19:26;1.10;;;1.10;;
19225;SDS011;9747;48.536;12.522;2023-12-20T07:21:53;1.10;;;1.10;;
19225;SDS011;9747;48.536;12.522;2023-12-20T07:24:21;0.80;;;0.80;;
19225;SDS011;9747;48.536;12.522;2023-12-20T07:26:49;1.13;;;1.13;;
19225;SDS011;9747;48.536;12.522;2023-12-20T07:29:17;1.40;;;1.30;;
19225;SDS011;9747;48.536;12.522;2023-12-20T07:31:44;1.08;;;1.08;;
19225;SDS011;9747;48.536;12.522;2023-12-20T07:34:13;1.33;;;1.10;;
19225;SDS011;9747;48.536;12.522;2023-12-20T07:36:40;2.08;;;1.20;;
19225;SDS011;9747;48.536;12.522;2023-12-20T07:39:08;0.90;;;0.90;;
19225;SDS011;9747;48.536;12.522;2023-12-20T07:41:35;1.42;;;1.10;;
19225;SDS011;9747;48.536;12.522;2023-12-20T07:44:03;2.67;;;1.20;;
19225;SDS011;9747;48.536;12.522;2023-12-20T07:46:32;1.10;;;1.00;;
19225;SDS011;9747;48.536;12.522;2023-12-20T07:48:59;2.80;;;1.10;;
19225;SDS011;9747;48.536;12.522;2023-12-20T07:51:28;1.80;;;1.10;;
19225;SDS011;9747;48.536;12.522;2023-12-20T07:53:55;1.95;;;1.10;;
19225;SDS011;9747;48.536;12.522;2023-12-20T07:56:23;2.95;;;1.20;;
19225;SDS011;9747;48.536;12.522;2023-12-20T07:58:50;2.15;;;1.35;;
19225;SDS011;9747;48.536;12.522;2023-12-20T08:01:18;1.60;;;1.15;;
19225;SDS011;9747;48.536;12.522;2023-12-20T08:03:46;1.70;;;1.08;;
19225;SDS011;9747;48.536;12.522;2023-12-20T08:06:14;1.23;;;1.13;;
19225;SDS011;9747;48.536;12.522;2023-12-20T08:08:43;2.47;;;1.30;;
19225;SDS011;9747;48.536;12.522;2023-12-20T08:11:11;4.43;;;1.20;;
19225;SDS011;9747;48.536;12.522;2023-12-20T08:13:38;28.45;;;14.93;;
19225;SDS011;9747;48.536;12.522;2023-12-20T08:16:06;34.35;;;17.20;;
19225;SDS011;9747;48.536;12.522;2023-12-20T08:18:34;26.15;;;12.77;;
19225;SDS011;9747;48.536;12.522;2023-12-20T08:21:01;24.50;;;10.98;;
19225;SDS011;9747;48.536;12.522;2023-12-20T08:23:32;19.67;;;9.70;;
19225;SDS011;9747;48.536;12.522;2023-12-20T08:26:04;19.98;;;8.07;;
19225;SDS011;9747;48.536;12.522;2023-12-20T08:28:32;12.52;;;6.93;;
19225;SDS011;9747;48.536;12.522;2023-12-20T08:31:00;9.75;;;5.70;;
19225;SDS011;9747;48.536;12.522;2023-12-20T08:33:27;2.40;;;2.17;;
19225;SDS011;9747;48.536;12.522;2023-12-20T08:35:55;2.40;;;1.80;;
19225;SDS011;9747;48.536;12.522;2023-12-20T08:38:23;4.43;;;2.65;;
19225;SDS011;9747;48.536;12.522;2023-12-20T08:40:50;5.82;;;3.08;;
19225;SDS011;9747;48.536;12.522;2023-12-20T08:43:19;6.75;;;3.20;;
19225;SDS011;9747;48.536;12.522;2023-12-20T08:45:46;4.47;;;2.97;;
19225;SDS011;9747;48.536;12.522;2023-12-20T08:48:14;5.78;;;3.40;;
19225;SDS011;9747;48.536;12.522;2023-12-20T08:50:42;5.22;;;3.42;;
19225;SDS011;9747;48.536;12.522;2023-12-20T08:53:10;3.60;;;3.05;;
19225;SDS011;9747;48.536;12.522;2023-12-20T08:55:37;4.00;;;3.20;;
19225;SDS011;9747;48.536;12.522;2023-12-20T08:58:05;8.82;;;3.58;;
19225;SDS011;9747;48.536;12.522;2023-12-20T09:00:34;4.13;;;3.28;;
19225;SDS011;9747;48.536;12.522;2023-12-20T09:03:02;5.85;;;2.80;;
19225;SDS011;9747;48.536;12.522;2023-12-20T09:05:30;2.80;;;2.33;;
19225;SDS011;9747;48.536;12.522;2023-12-20T09:07:58;2.95;;;2.47;;
19225;SDS011;9747;48.536;12.522;2023-12-20T09:10:25;3.08;;;2.30;;
19225;SDS011;9747;48.536;12.522;2023-12-20T09:12:53;4.00;;;2.20;;
19225;SDS011;9747;48.536;12.522;2023-12-20T09:15:22;3.80;;;2.30;;
19225;SDS011;9747;48.536;12.522;2023-12-20T09:17:51;6.07;;;5.57;;
19225;SDS011;9747;48.536;12.522;2023-12-20T09:20:19;4.97;;;3.88;;
19225;SDS011;9747;48.536;12.522;2023-12-20T09:22:48;4.57;;;3.40;;
19225;SDS011;9747;48.536;12.522;2023-12-20T09:25:16;3.75;;;3.08;;
19225;SDS011;9747;48.536;12.522;2023-12-20T09:27:44;4.43;;;3.10;;
19225;SDS011;9747;48.536;12.522;2023-12-20T09:30:11;4.43;;;3.13;;
19225;SDS011;9747;48.536;12.522;2023-12-20T09:32:39;3.00;;;2.75;;
19225;SDS011;9747;48.536;12.522;2023-12-20T09:35:08;5.50;;;2.75;;
19225;SDS011;9747;48.536;12.522;2023-12-20T09:37:36;4.22;;;2.80;;
19225;SDS011;9747;48.536;12.522;2023-12-20T09:40:06;3.50;;;2.95;;
19225;SDS011;9747;48.536;12.522;2023-12-20T09:42:39;3.72;;;2.67;;
19225;SDS011;9747;48.536;12.522;2023-12-20T09:45:15;2.53;;;2.33;;
19225;SDS011;9747;48.536;12.522;2023-12-20T09:47:42;4.95;;;2.28;;
19225;SDS011;9747;48.536;12.522;2023-12-20T09:50:11;2.60;;;2.40;;
19225;SDS011;9747;48.536;12.522;2023-12-20T09:52:39;4.50;;;2.20;;
19225;SDS011;9747;48.536;12.522;2023-12-20T09:55:07;4.60;;;2.40;;
19225;SDS011;9747;48.536;12.522;2023-12-20T09:57:35;4.45;;;2.30;;
19225;SDS011;9747;48.536;12.522;2023-12-20T10:00:02;3.08;;;2.30;;
19225;SDS011;9747;48.536;12.522;2023-12-20T10:02:37;3.92;;;2.28;;
19225;SDS011;9747;48.536;12.522;2023-12-20T10:05:06;3.97;;;2.10;;
19225;SDS011;9747;48.536;12.522;2023-12-20T10:07:36;4.55;;;2.10;;
19225;SDS011;9747;48.536;12.522;2023-12-20T10:10:04;3.90;;;2.20;;
19225;SDS011;9747;48.536;12.522;2023-12-20T10:12:34;4.15;;;2.08;;
19225;SDS011;9747;48.536;12.522;2023-12-20T10:15:01;2.15;;;1.90;;
19225;SDS011;9747;48.536;12.522;2023-12-20T10:17:29;3.85;;;2.10;;
19225;SDS011;9747;48.536;12.522;2023-12-20T10:19:56;3.15;;;2.42;;
19225;SDS011;9747;48.536;12.522;2023-12-20T10:22:24;2.30;;;2.03;;
19225;SDS011;9747;48.536;12.522;2023-12-20T10:24:53;5.13;;;2.00;;
19225;SDS011;9747;48.536;12.522;2023-12-20T10:27:22;2.58;;;2.10;;
19225;SDS011;9747;48.536;12.522;2023-12-20T10:29:50;2.38;;;1.77;;
19225;SDS011;9747;48.536;12.522;2023-12-20T10:32:21;3.83;;;1.83;;
19225;SDS011;9747;48.536;12.522;2023-12-20T10:34:50;3.10;;;2.00;;
19225;SDS011;9747;48.536;12.522;2023-12-20T10:37:18;4.95;;;2.03;;
19225;SDS011;9747;48.536;12.522;2023-12-20T10:39:47;2.95;;;2.00;;
19225;SDS011;9747;48.536;12.522;2023-12-20T10:42:19;2.45;;;1.80;;
19225;SDS011;9747;48.536;12.522;2023-12-20T10:44:48;2.30;;;1.70;;
19225;SDS011;9747;48.536;12.522;2023-12-20T10:47:17;2.65;;;1.85;;
19225;SDS011;9747;48.536;12.522;2023-12-20T10:49:44;3.03;;;1.58;;
19225;SDS011;9747;48.536;12.522;2023-12-20T10:52:13;3.10;;;1.75;;
19225;SDS011;9747;48.536;12.522;2023-12-20T10:54:40;3.53;;;1.90;;
19225;SDS011;9747;48.536;12.522;2023-12-20T10:57:08;2.03;;;1.80;;
19225;SDS011;9747;48.536;12.522;2023-12-20T10:59:37;2.63;;;2.00;;
19225;SDS011;9747;48.536;12.522;2023-12-20T11:02:05;4.00;;;1.80;;
19225;SDS011;9747;48.536;12.522;2023-12-20T11:04:36;3.47;;;1.40;;
19225;SDS011;9747;48.536;12.522;2023-12-20T11:07:15;2.28;;;1.60;;
19225;SDS011;9747;48.536;12.522;2023-12-20T11:09:47;2.95;;;1.52;;
19225;SDS011;9747;48.536;12.522;2023-12-20T11:12:29;3.08;;;1.70;;
19225;SDS011;9747;48.536;12.522;2023-12-20T11:15:06;1.92;;;1.58;;
19225;SDS011;9747;48.536;12.522;2023-12-20T11:17:33;1.98;;;1.65;;
19225;SDS011;9747;48.536;12.522;2023-12-20T11:20:06;2.65;;;1.73;;
19225;SDS011;9747;48.536;12.522;2023-12-20T11:22:37;1.58;;;1.48;;
19225;SDS011;9747;48.536;12.522;2023-12-20T11:25:08;2.00;;;1.75;;
19225;SDS011;9747;48.536;12.522;2023-12-20T11:27:36;3.30;;;1.50;;
19225;SDS011;9747;48.536;12.522;2023-12-20T11:30:10;1.40;;;1.30;;
19225;SDS011;9747;48.536;12.522;2023-12-20T11:32:39;1.40;;;1.30;;
19225;SDS011;9747;48.536;12.522;2023-12-20T11:35:18;1.48;;;1.38;;
19225;SDS011;9747;48.536;12.522;2023-12-20T11:37:46;1.40;;;1.40;;
19225;SDS011;9747;48.536;12.522;2023-12-20T11:40:14;2.15;;;1.70;;
19225;SDS011;9747;48.536;12.522;2023-12-20T11:42:44;1.42;;;1.33;;
19225;SDS011;9747;48.536;12.522;2023-12-20T11:45:16;2.15;;;1.50;;
19225;SDS011;9747;48.536;12.522;2023-12-20T11:47:47;1.80;;;1.70;;
19225;SDS011;9747;48.536;12.522;2023-12-20T11:50:16;2.03;;;1.40;;
19225;SDS011;9747;48.536;12.522;2023-12-20T11:52:44;1.48;;;1.38;;
19225;SDS011;9747;48.536;12.522;2023-12-20T11:55:12;1.48;;;1.48;;
19225;SDS011;9747;48.536;12.522;2023-12-20T11:57:39;1.40;;;1.30;;
19225;SDS011;9747;48.536;12.522;2023-12-20T12:00:08;1.58;;;1.48;;
19225;SDS011;9747;48.536;12.522;2023-12-20T12:02:40;1.40;;;1.30;;
19225;SDS011;9747;48.536;12.522;2023-12-20T12:05:08;2.83;;;1.48;;
19225;SDS011;9747;48.536;12.522;2023-12-20T12:07:35;2.13;;;1.33;;
19225;SDS011;9747;48.536;12.522;2023-12-20T12:10:03;1.20;;;1.10;;
19225;SDS011;9747;48.536;12.522;2023-12-20T12:12:33;1.83;;;1.30;;
19225;SDS011;9747;48.536;12.522;2023-12-20T12:15:01;1.17;;;1.17;;
19225;SDS011;9747;48.536;12.522;2023-12-20T12:17:28;1.42;;;1.33;;
19225;SDS011;9747;48.536;12.522;2023-12-20T12:20:03;1.30;;;1.30;;
19225;SDS011;9747;48.536;12.522;2023-12-20T12:22:31;1.20;;;1.20;;
19225;SDS011;9747;48.536;12.522;2023-12-20T12:24:59;1.40;;;1.40;;
19225;SDS011;9747;48.536;12.522;2023-12-20T12:27:36;1.58;;;1.48;;
19225;SDS011;9747;48.536;12.522;2023-12-20T12:30:04;1.60;;;1.60;;
19225;SDS011;9747;48.536;12.522;2023-12-20T12:32:37;1.25;;;1.25;;
19225;SDS011;9747;48.536;12.522;2023-12-20T12:35:08;1.42;;;1.33;;
19225;SDS011;9747;48.536;12.522;2023-12-20T12:37:37;2.17;;;1.50;;
19225;SDS011;9747;48.536;12.522;2023-12-20T12:40:06;3.75;;;1.60;;
19225;SDS011;9747;48.536;12.522;2023-12-20T12:42:36;3.80;;;2.28;;
19225;SDS011;9747;48.536;12.522;2023-12-20T12:45:04;2.55;;;2.05;;
19225;SDS011;9747;48.536;12.522;2023-12-20T12:47:33;4.22;;;1.98;;
19225;SDS011;9747;48.536;12.522;2023-12-20T12:50:01;1.98;;;1.70;;
19225;SDS011;9747;48.536;12.522;2023-12-20T12:52:30;1.70;;;1.60;;
19225;SDS011;9747;48.536;12.522;2023-12-20T12:54:58;1.67;;;1.55;;
19225;SDS011;9747;48.536;12.522;2023-12-20T12:57:26;1.95;;;1.48;;
19225;SDS011;9747;48.536;12.522;2023-12-20T12:59:53;3.17;;;1.73;;
19225;SDS011;9747;48.536;12.522;2023-12-20T13:02:21;1.50;;;1.30;;
19225;SDS011;9747;48.536;12.522;2023-12-20T13:04:48;2.47;;;1.40;;
19225;SDS011;9747;48.536;12.522;2023-12-20T13:07:16;1.75;;;1.50;;
19225;SDS011;9747;48.536;12.522;2023-12-20T13:09:45;1.60;;;1.50;;
19225;SDS011;9747;48.536;12.522;2023-12-20T13:12:12;1.60;;;1.50;;
19225;SDS011;9747;48.536;12.522;2023-12-20T13:14:40;1.45;;;1.40;;
19225;SDS011;9747;48.536;12.522;2023-12-20T13:17:07;1.38;;;1.27;;
19225;SDS011;9747;48.536;12.522;2023-12-20T13:19:35;2.58;;;1.50;;
19225;SDS011;9747;48.536;12.522;2023-12-20T13:22:03;3.33;;;1.60;;
19225;SDS011;9747;48.536;12.522;2023-12-20T13:24:31;1.73;;;1.30;;
19225;SDS011;9747;48.536;12.522;2023-12-20T13:27:00;1.85;;;1.50;;
19225;SDS011;9747;48.536;12.522;2023-12-20T13:29:27;1.90;;;1.27;;
19225;SDS011;9747;48.536;12.522;2023-12-20T13:31:55;1.40;;;1.30;;
19225;SDS011;9747;48.536;12.522;2023-12-20T13:34:23;1.23;;;1.20;;
19225;SDS011;9747;48.536;12.522;2023-12-20T13:36:51;1.30;;;1.30;;
19225;SDS011;9747;48.536;12.522;2023-12-20T13:39:18;1.65;;;1.13;;
19225;SDS011;9747;48.536;12.522;2023-12-20T13:41:46;1.38;;;1.33;;
19225;SDS011;9747;48.536;12.522;2023-12-20T13:44:15;1.50;;;1.45;;
19225;SDS011;9747;48.536;12.522;2023-12-20T13:46:42;1.30;;;1.20;;
19225;SDS011;9747;48.536;12.522;2023-12-20T13:49:10;1.00;;;1.00;;
19225;SDS011;9747;48.536;12.522;2023-12-20T13:51:38;1.30;;;1.30;;
19225;SDS011;9747;48.536;12.522;2023-12-20T13:54:06;1.20;;;1.20;;
19225;SDS011;9747;48.536;12.522;2023-12-20T13:56:36;1.20;;;1.20;;
19225;SDS011;9747;48.536;12.522;2023-12-20T13:59:03;1.38;;;1.27;;
19225;SDS011;9747;48.536;12.522;2023-12-20T14:01:32;1.40;;;1.30;;
19225;SDS011;9747;48.536;12.522;2023-12-20T14:04:00;1.33;;;1.17;;
19225;SDS011;9747;48.536;12.522;2023-12-20T14:06:27;1.13;;;1.02;;
19225;SDS011;9747;48.536;12.522;2023-12-20T14:08:55;1.48;;;1.38;;
19225;SDS011;9747;48.536;12.522;2023-12-20T14:11:22;1.42;;;1.27;;
19225;SDS011;9747;48.536;12.522;2023-12-20T14:13:49;1.10;;;1.10;;
19225;SDS011;9747;48.536;12.522;2023-12-20T14:16:17;1.13;;;1.13;;
19225;SDS011;9747;48.536;12.522;2023-12-20T14:18:45;1.13;;;1.10;;
19225;SDS011;9747;48.536;12.522;2023-12-20T14:21:13;1.35;;;1.10;;
19225;SDS011;9747;48.536;12.522;2023-12-20T14:23:40;1.88;;;1.10;;
19225;SDS011;9747;48.536;12.522;2023-12-20T14:26:08;1.35;;;1.00;;
19225;SDS011;9747;48.536;12.522;2023-12-20T14:28:40;1.20;;;1.20;;
19225;SDS011;9747;48.536;12.522;2023-12-20T14:31:07;2.78;;;1.40;;
19225;SDS011;9747;48.536;12.522;2023-12-20T14:33:35;1.23;;;1.23;;
19225;SDS011;9747;48.536;12.522;2023-12-20T14:36:05;1.30;;;1.30;;
19225;SDS011;9747;48.536;12.522;2023-12-20T14:38:34;1.50;;;1.40;;
19225;SDS011;9747;48.536;12.522;2023-12-20T14:41:01;1.50;;;1.50;;
19225;SDS011;9747;48.536;12.522;2023-12-20T14:43:31;1.35;;;1.30;;
19225;SDS011;9747;48.536;12.522;2023-12-20T14:45:58;1.60;;;1.52;;
19225;SDS011;9747;48.536;12.522;2023-12-20T14:48:26;1.48;;;1.38;;
19225;SDS011;9747;48.536;12.522;2023-12-20T14:50:53;11.20;;;7.80;;
19225;SDS011;9747;48.536;12.522;2023-12-20T14:53:22;7.22;;;4.75;;